createdAt,value
2017-08-22T18:49:00.655Z,76.9
2017-08-22T18:49:21.345Z,76.8
2017-08-22T18:49:41.993Z,76.5
2017-08-22T18:50:02.675Z,76.1
2017-08-22T18:50:23.325Z,77.1
2017-08-22T18:50:43.974Z,76.8
2017-08-22T18:51:04.620Z,77.1
2017-08-22T18:51:25.262Z,77.6
2017-08-22T18:51:45.907Z,77.6
2017-08-22T18:52:06.574Z,77.1
2017-08-22T18:52:27.290Z,77.1
2017-08-22T18:52:47.965Z,77.1
2017-08-22T18:53:08.665Z,77.4
2017-08-22T18:53:29.289Z,77.9
2017-08-22T18:53:49.945Z,77.4
2017-08-22T18:54:10.596Z,77.2
2017-08-22T18:54:31.324Z,77.4
2017-08-22T18:54:51.973Z,77.6
2017-08-22T18:55:12.780Z,77.9
2017-08-22T18:55:33.455Z,77.4
2017-08-22T18:55:54.094Z,77.1
2017-08-22T18:56:14.750Z,77.4
2017-08-22T18:56:35.476Z,77.3
2017-08-22T18:56:56.190Z,77.2
2017-08-22T18:57:16.859Z,77.1
2017-08-22T18:57:37.505Z,77.5
2017-08-22T18:57:58.174Z,77.4
2017-08-22T18:58:18.809Z,77.5
2017-08-22T18:58:39.506Z,77.2
2017-08-22T18:59:00.258Z,76.9
2017-08-22T18:59:20.967Z,77.1
2017-08-22T18:59:41.772Z,76.6
2017-08-22T19:00:02.551Z,77.2
2017-08-22T19:00:23.321Z,77.4
2017-08-22T19:00:43.977Z,77.6
2017-08-22T19:01:04.672Z,77.4
2017-08-22T19:01:25.356Z,77.6
2017-08-22T19:01:46.034Z,77.3
2017-08-22T19:02:07.675Z,77.2
2017-08-22T19:02:28.339Z,77.6
2017-08-22T19:02:48.973Z,77.6
2017-08-22T19:03:09.597Z,77.9
2017-08-22T19:03:30.282Z,77.3
2017-08-22T19:03:50.943Z,77.2
2017-08-22T19:04:11.571Z,77.5
2017-08-22T19:04:32.194Z,77
2017-08-22T19:04:52.824Z,77.6
2017-08-22T19:05:13.535Z,77.6
2017-08-22T19:05:34.163Z,77.5
2017-08-22T19:05:54.829Z,77.4
2017-08-22T19:06:15.513Z,77.6
2017-08-22T19:06:36.170Z,77.1
2017-08-22T19:06:56.840Z,76.6
2017-08-22T19:07:17.471Z,76.5
2017-08-22T19:07:38.129Z,75.8
2017-08-22T19:07:58.794Z,75.7
2017-08-22T19:08:19.474Z,75.9
2017-08-22T19:08:40.162Z,76.1
2017-08-22T19:09:00.794Z,75.5
2017-08-22T19:09:21.426Z,75.7
2017-08-22T19:09:42.125Z,76.5
2017-08-22T19:10:02.796Z,75.9
2017-08-22T19:10:23.517Z,76.8
2017-08-22T19:10:44.161Z,77.4
2017-08-22T19:11:04.825Z,76.9
2017-08-22T19:11:25.465Z,76.8
2017-08-22T19:11:46.105Z,76.9
2017-08-22T19:12:06.807Z,77
2017-08-22T19:12:27.443Z,77.6
2017-08-22T19:12:48.077Z,77.4
2017-08-22T19:13:08.740Z,77.6
2017-08-22T19:13:29.379Z,77.3
2017-08-22T19:13:50.084Z,77.2
2017-08-22T19:14:10.771Z,77.6
2017-08-22T19:14:31.409Z,77.4
2017-08-22T19:14:52.056Z,77.4
2017-08-22T19:15:12.698Z,77.4
2017-08-22T19:15:33.352Z,77.1
2017-08-22T19:15:53.977Z,77.6
2017-08-22T19:16:14.617Z,77.6
2017-08-22T19:16:35.260Z,77.4
2017-08-22T19:16:55.935Z,77.7
2017-08-22T19:17:16.569Z,77.8
2017-08-22T19:17:37.194Z,77.4
2017-08-22T19:17:57.842Z,78
2017-08-22T19:18:18.574Z,78.3
2017-08-22T19:18:39.287Z,77.7
2017-08-22T19:18:59.949Z,77.6
2017-08-22T19:19:20.592Z,77.7
2017-08-22T19:19:41.253Z,77.9
2017-08-22T19:20:01.935Z,78.3
2017-08-22T19:20:22.582Z,78.1
2017-08-22T19:20:43.265Z,77.9
2017-08-22T19:21:03.929Z,78.1
2017-08-22T19:21:24.685Z,78.8
2017-08-22T19:21:45.319Z,78.5
2017-08-22T19:22:06.018Z,78.9
2017-08-22T19:22:26.675Z,79
2017-08-22T19:22:47.308Z,79.5
2017-08-22T19:23:07.999Z,79.4
2017-08-22T19:23:28.687Z,78.5
2017-08-22T19:23:49.320Z,78.9
2017-08-22T19:24:09.989Z,78.6
2017-08-22T19:24:30.640Z,79.5
2017-08-22T19:24:51.296Z,79.4
2017-08-22T19:25:11.956Z,79.3
2017-08-22T19:25:32.599Z,79.1
2017-08-22T19:25:53.269Z,79
2017-08-22T19:26:13.938Z,79.3
2017-08-22T19:26:34.578Z,79.3
2017-08-22T19:26:55.239Z,79.2
2017-08-22T19:27:15.980Z,78.9
2017-08-22T19:27:36.785Z,79.2
2017-08-22T19:27:57.440Z,78.9
2017-08-22T19:28:18.079Z,78.9
2017-08-22T19:28:38.730Z,79.1
2017-08-22T19:28:59.433Z,78.4
2017-08-22T19:29:20.751Z,78.7
2017-08-22T19:29:41.506Z,78.4
2017-08-22T19:30:02.146Z,79.2
2017-08-22T19:30:22.818Z,79
2017-08-22T19:30:43.484Z,78.9
2017-08-22T19:31:04.150Z,78.7
2017-08-22T19:31:24.784Z,78.5
2017-08-22T19:31:45.475Z,79.2
2017-08-22T19:32:06.173Z,79.5
2017-08-22T19:32:26.873Z,78.9
2017-08-22T19:32:47.551Z,79.4
2017-08-22T19:33:08.267Z,80
2017-08-22T19:33:28.932Z,80.4
2017-08-22T19:33:49.573Z,80.4
2017-08-22T19:34:10.203Z,80.3
2017-08-22T19:34:30.861Z,80.1
2017-08-22T19:34:51.519Z,80.3
2017-08-22T19:35:12.205Z,79.7
2017-08-22T19:35:32.836Z,79.5
2017-08-22T19:35:53.491Z,79.7
2017-08-22T19:36:14.155Z,80.4
2017-08-22T19:36:34.875Z,80.1
2017-08-22T19:36:55.501Z,79.9
2017-08-22T19:37:16.166Z,80
2017-08-22T19:37:36.899Z,80.2
2017-08-22T19:37:57.620Z,80.6
2017-08-22T19:38:18.327Z,80.1
2017-08-22T19:38:38.976Z,80.2
2017-08-22T19:38:59.644Z,80
2017-08-22T19:39:20.358Z,80.6
2017-08-22T19:39:41.045Z,81
2017-08-22T19:40:01.681Z,80.7
2017-08-22T19:40:22.357Z,81.3
2017-08-22T19:40:43.125Z,81
2017-08-22T19:41:03.856Z,81
2017-08-22T19:41:24.503Z,81
2017-08-22T19:41:45.170Z,80.6
2017-08-22T19:42:05.806Z,80.8
2017-08-22T19:42:26.491Z,80.6
2017-08-22T19:42:47.140Z,80.8
2017-08-22T19:43:07.798Z,80.6
2017-08-22T19:43:28.475Z,81
2017-08-22T19:43:49.130Z,81
2017-08-22T19:44:09.875Z,81
2017-08-22T19:44:30.527Z,81.1
2017-08-22T19:44:51.172Z,81.1
2017-08-22T19:45:11.847Z,81
2017-08-22T19:45:32.506Z,81
2017-08-22T19:45:53.138Z,81.1
2017-08-22T19:46:13.808Z,81.1
2017-08-22T19:46:34.426Z,80.9
2017-08-22T19:46:55.076Z,80.8
2017-08-22T19:47:15.707Z,81.4
2017-08-22T19:47:36.368Z,81.3
2017-08-22T19:47:57.070Z,81.4
2017-08-22T19:48:17.721Z,81.3
2017-08-22T19:48:38.412Z,81.2
2017-08-22T19:48:59.064Z,81.6
2017-08-22T19:49:19.705Z,80.8
2017-08-22T19:49:40.394Z,81
2017-08-22T19:50:01.026Z,81
2017-08-22T19:50:21.718Z,80.9
2017-08-22T19:50:42.412Z,81.4
2017-08-22T19:51:03.050Z,81.1
2017-08-22T19:51:23.679Z,81
2017-08-22T19:51:44.327Z,81.4
2017-08-22T19:52:04.981Z,81.3
2017-08-22T19:52:25.598Z,81.4
2017-08-22T19:52:46.273Z,81.4
2017-08-22T19:53:06.906Z,81.3
2017-08-22T19:53:27.548Z,81.1
2017-08-22T19:53:48.290Z,81.1
2017-08-22T19:54:08.950Z,80.9
2017-08-22T19:54:29.617Z,81.1
2017-08-22T19:54:50.288Z,81.6
2017-08-22T19:55:10.948Z,81.5
2017-08-22T19:55:31.603Z,81.4
2017-08-22T19:55:52.257Z,81.5
2017-08-22T19:56:12.948Z,81.6
2017-08-22T19:56:33.648Z,81.6
2017-08-22T19:56:54.294Z,81.5
2017-08-22T19:57:14.935Z,81.1
2017-08-22T19:57:35.605Z,81.5
2017-08-22T19:57:56.269Z,81.1
2017-08-22T19:58:16.930Z,81.5
2017-08-22T19:58:37.652Z,81.3
2017-08-22T19:58:58.421Z,81.1
2017-08-22T19:59:19.333Z,81.2
2017-08-22T19:59:40.010Z,81.1
2017-08-22T20:00:00.712Z,81.4
2017-08-22T20:00:21.506Z,81.7
2017-08-22T20:00:42.163Z,81.9
2017-08-22T20:01:03.394Z,82.1
2017-08-22T20:01:24.080Z,81.8
2017-08-22T20:01:44.721Z,81.9
2017-08-22T20:02:05.431Z,82.3
2017-08-22T20:02:26.106Z,81.8
2017-08-22T20:02:46.756Z,82.1
2017-08-22T20:03:07.473Z,81.9
2017-08-22T20:03:28.108Z,81.9
2017-08-22T20:03:48.776Z,82
2017-08-22T20:04:09.467Z,82
2017-08-22T20:04:30.172Z,81.5
2017-08-22T20:04:50.853Z,81.9
2017-08-22T20:05:11.497Z,82.1
2017-08-22T20:05:32.207Z,82
2017-08-22T20:05:52.922Z,81.9
2017-08-22T20:06:13.576Z,82.3
2017-08-22T20:06:34.295Z,82.3
2017-08-22T20:06:54.971Z,82.2
2017-08-22T20:07:15.611Z,81.9
2017-08-22T20:07:36.238Z,82.2
2017-08-22T20:07:56.897Z,82.9
2017-08-22T20:08:17.543Z,82.6
2017-08-22T20:08:38.198Z,82.6
2017-08-22T20:08:58.877Z,83.3
2017-08-22T20:09:19.567Z,82.6
2017-08-22T20:09:40.218Z,82.4
2017-08-22T20:10:00.932Z,82.2
2017-08-22T20:10:21.604Z,82.5
2017-08-22T20:10:42.288Z,82.4
2017-08-22T20:11:03.004Z,82.1
2017-08-22T20:11:23.686Z,83
2017-08-22T20:11:44.334Z,83
2017-08-22T20:12:04.973Z,83.4
2017-08-22T20:12:25.626Z,82.8
2017-08-22T20:12:46.299Z,83.1
2017-08-22T20:13:06.924Z,83.1
2017-08-22T20:13:27.566Z,83.3
2017-08-22T20:13:48.303Z,83.4
2017-08-22T20:14:08.964Z,82.8
2017-08-22T20:14:29.655Z,83.4
2017-08-22T20:14:50.329Z,82.6
2017-08-22T20:15:10.951Z,82.5
2017-08-22T20:15:31.618Z,82.5
2017-08-22T20:15:52.314Z,82.6
2017-08-22T20:16:12.990Z,82.7
2017-08-22T20:16:33.674Z,82.7
2017-08-22T20:16:54.370Z,83.4
2017-08-22T20:17:15.017Z,82.4
2017-08-22T20:17:35.661Z,82.5
2017-08-22T20:17:56.301Z,82.3
2017-08-22T20:18:16.970Z,82.7
2017-08-22T20:18:37.665Z,82.6
2017-08-22T20:18:58.324Z,82.6
2017-08-22T20:19:19.065Z,83.3
2017-08-22T20:19:39.728Z,83.6
2017-08-22T20:20:00.358Z,83.4
2017-08-22T20:20:21.006Z,83.3
2017-08-22T20:20:41.647Z,83.1
2017-08-22T20:21:02.328Z,83.3
2017-08-22T20:21:22.977Z,83.3
2017-08-22T20:21:43.682Z,82.8
2017-08-22T20:22:04.346Z,82.9
2017-08-22T20:22:24.994Z,83.2
2017-08-22T20:22:45.637Z,82.7
2017-08-22T20:23:06.308Z,82.5
2017-08-22T20:23:26.932Z,83
2017-08-22T20:23:47.597Z,82.7
2017-08-22T20:24:08.273Z,83.2
2017-08-22T20:24:28.944Z,83.5
2017-08-22T20:24:49.620Z,83.2
2017-08-22T20:25:10.270Z,83.2
2017-08-22T20:25:30.957Z,82.7
2017-08-22T20:25:51.650Z,84.2
2017-08-22T20:26:12.348Z,84.1
2017-08-22T20:26:33.035Z,84.1
2017-08-22T20:26:53.730Z,84.2
2017-08-22T20:27:14.429Z,84.7
2017-08-22T20:27:35.168Z,83.9
2017-08-22T20:27:55.844Z,83.7
2017-08-22T20:28:16.471Z,83.7
2017-08-22T20:28:37.128Z,83.7
2017-08-22T20:28:57.807Z,83.3
2017-08-22T20:29:18.453Z,83.2
2017-08-22T20:29:39.118Z,83.6
2017-08-22T20:29:59.782Z,83.1
2017-08-22T20:30:20.451Z,83.2
2017-08-22T20:30:41.198Z,83.3
2017-08-22T20:31:01.889Z,83.7
2017-08-22T20:31:22.555Z,83.7
2017-08-22T20:31:43.205Z,84
2017-08-22T20:32:03.887Z,84.1
2017-08-22T20:32:24.559Z,84.8
2017-08-22T20:32:45.253Z,84.1
2017-08-22T20:33:05.946Z,84.8
2017-08-22T20:33:27.306Z,84
2017-08-22T20:33:47.950Z,84.2
2017-08-22T20:34:08.643Z,84.3
2017-08-22T20:34:29.563Z,83.8
2017-08-22T20:34:50.864Z,83.7
2017-08-22T20:35:11.590Z,83.8
2017-08-22T20:35:32.272Z,83.7
2017-08-22T20:35:52.971Z,83.7
2017-08-22T20:36:13.667Z,83.9
2017-08-22T20:36:34.555Z,84
2017-08-22T20:36:56.622Z,84.1
2017-08-22T20:37:17.133Z,85
2017-08-22T20:37:37.800Z,84.8
2017-08-22T20:37:58.437Z,84.9
2017-08-22T20:38:19.412Z,84.9
2017-08-22T20:38:40.497Z,84.9
2017-08-22T20:39:01.301Z,84.6
2017-08-22T20:39:22.379Z,85.5
2017-08-22T20:39:43.071Z,85
2017-08-22T20:40:04.263Z,84.8
2017-08-22T20:40:25.270Z,85
2017-08-22T20:40:46.114Z,85.4
2017-08-22T20:41:06.986Z,85.8
2017-08-22T20:41:27.890Z,86.1
2017-08-22T20:41:49.452Z,86.1
2017-08-22T20:42:10.202Z,85.6
2017-08-22T20:42:30.905Z,85.5
2017-08-22T20:42:51.575Z,85.3
2017-08-22T20:43:12.282Z,85.2
2017-08-22T20:43:33.095Z,85.9
2017-08-22T20:43:54.216Z,85.7
2017-08-22T20:44:15.030Z,85.8
2017-08-22T20:44:35.733Z,85.8
2017-08-22T20:44:56.366Z,85.4
2017-08-22T20:45:17.039Z,85.4
2017-08-22T20:45:37.734Z,85.6
2017-08-22T20:45:58.833Z,85.9
2017-08-22T20:46:19.510Z,85.4
2017-08-22T20:46:41.316Z,85.4
2017-08-22T20:47:02.456Z,86
2017-08-22T20:47:23.711Z,85.6
2017-08-22T20:47:44.592Z,85.7
2017-08-22T20:48:05.244Z,85.7
2017-08-22T20:48:25.996Z,87
2017-08-22T20:48:46.893Z,86.5
2017-08-22T20:49:07.812Z,85.8
2017-08-22T20:49:28.656Z,86.2
2017-08-22T20:49:49.325Z,86.2
2017-08-22T20:50:09.974Z,86
2017-08-22T20:50:30.640Z,86
2017-08-22T20:50:51.316Z,85.6
2017-08-22T20:51:12.025Z,85.9
2017-08-22T20:51:32.650Z,86.1
2017-08-22T20:51:53.288Z,86.1
2017-08-22T20:52:13.945Z,85.9
2017-08-22T20:52:34.581Z,85.8
2017-08-22T20:52:55.256Z,86.4
2017-08-22T20:53:15.993Z,86.7
2017-08-22T20:53:36.704Z,86.3
2017-08-22T20:53:57.333Z,87
2017-08-22T20:54:17.976Z,86.7
2017-08-22T20:54:38.612Z,86.1
2017-08-22T20:54:59.291Z,86.9
2017-08-22T20:55:19.949Z,86.8
2017-08-22T20:55:40.645Z,86.3
2017-08-22T20:56:01.412Z,86.7
2017-08-22T20:56:22.123Z,86.3
2017-08-22T20:56:42.798Z,86.6
2017-08-22T20:57:03.490Z,86.7
2017-08-22T20:57:24.180Z,86.6
2017-08-22T20:57:44.957Z,86.4
2017-08-22T20:58:05.592Z,86.9
2017-08-22T20:58:26.455Z,86.5
2017-08-22T20:58:47.247Z,86.6
2017-08-22T20:59:08.945Z,86.7
2017-08-22T20:59:30.689Z,86.7
2017-08-22T20:59:51.966Z,86.4
2017-08-22T21:00:12.752Z,86.6
2017-08-22T21:00:33.441Z,86.7
2017-08-22T21:00:54.290Z,86.1
2017-08-22T21:01:15.028Z,86.9
2017-08-22T21:01:35.751Z,87.8
2017-08-22T21:01:57.359Z,86.9
2017-08-22T21:02:18.100Z,86.9
2017-08-22T21:02:38.831Z,87.2
2017-08-22T21:03:00.662Z,87
2017-08-22T21:03:21.727Z,86.5
2017-08-22T21:03:42.442Z,86.3
2017-08-22T21:04:03.239Z,87
2017-08-22T21:04:23.933Z,86.8
2017-08-22T21:04:44.770Z,87
2017-08-22T21:05:05.496Z,86.8
2017-08-22T21:05:26.181Z,87
2017-08-22T21:05:46.810Z,87
2017-08-22T21:06:07.480Z,86.9
2017-08-22T21:06:28.174Z,87
2017-08-22T21:06:48.821Z,87
2017-08-22T21:07:09.464Z,86.7
2017-08-22T21:07:30.192Z,86.8
2017-08-22T21:07:50.931Z,87.7
2017-08-22T21:08:11.563Z,87.6
2017-08-22T21:08:32.431Z,87.5
2017-08-22T21:08:53.070Z,87.5
2017-08-22T21:09:13.713Z,87.3
2017-08-22T21:09:34.393Z,87.8
2017-08-22T21:09:55.080Z,87.5
2017-08-22T21:10:15.768Z,87.8
2017-08-22T21:10:36.512Z,87.9
2017-08-22T21:10:57.236Z,87.9
2017-08-22T21:11:17.899Z,88.3
2017-08-22T21:11:38.631Z,88.1
2017-08-22T21:11:59.269Z,88.5
2017-08-22T21:12:19.962Z,88.3
2017-08-22T21:12:40.651Z,88.4
2017-08-22T21:13:01.337Z,88.3
2017-08-22T21:13:22.030Z,88
2017-08-22T21:13:42.674Z,88
2017-08-22T21:14:03.312Z,88.3
2017-08-22T21:14:23.964Z,88.5
2017-08-22T21:14:44.647Z,88.4
2017-08-22T21:15:05.343Z,88.7
2017-08-22T21:15:26.008Z,88.3
2017-08-22T21:15:46.714Z,88.3
2017-08-22T21:16:07.394Z,88.5
2017-08-22T21:16:28.137Z,88.6
2017-08-22T21:16:48.797Z,88.4
2017-08-22T21:17:09.445Z,88.4
2017-08-22T21:17:30.147Z,88.5
2017-08-22T21:17:50.872Z,88.1
2017-08-22T21:18:11.513Z,88
2017-08-22T21:18:32.177Z,88.3
2017-08-22T21:18:52.951Z,88.1
2017-08-22T21:19:13.618Z,88.1
2017-08-22T21:19:34.291Z,88.4
2017-08-22T21:19:54.930Z,89
2017-08-22T21:20:15.621Z,88.9
2017-08-22T21:20:36.406Z,88.5
2017-08-22T21:20:57.137Z,88.7
2017-08-22T21:21:17.867Z,88
2017-08-22T21:21:38.528Z,88.6
2017-08-22T21:21:59.219Z,87.9
2017-08-22T21:22:19.878Z,87.9
2017-08-22T21:22:40.571Z,88.1
2017-08-22T21:23:03.150Z,88.1
2017-08-22T21:23:23.779Z,88.1
2017-08-22T21:23:44.433Z,88.3
2017-08-22T21:24:05.115Z,88.5
2017-08-22T21:24:25.849Z,88.5
2017-08-22T21:24:46.510Z,88.9
2017-08-22T21:25:07.166Z,88.9
2017-08-22T21:25:27.799Z,89.1
2017-08-22T21:25:48.455Z,89
2017-08-22T21:26:10.049Z,88.4
2017-08-22T21:26:30.757Z,88.4
2017-08-22T21:26:51.413Z,88.4
2017-08-22T21:27:12.098Z,88.6
2017-08-22T21:27:32.740Z,88.6
2017-08-22T21:27:53.393Z,88.3
2017-08-22T21:28:14.072Z,89.2
2017-08-22T21:28:34.743Z,89.2
2017-08-22T21:28:55.394Z,88.4
2017-08-22T21:29:16.072Z,89
2017-08-22T21:29:36.828Z,89.2
2017-08-22T21:29:57.492Z,89.2
2017-08-22T21:30:18.176Z,88.8
2017-08-22T21:30:38.851Z,89.2
2017-08-22T21:30:59.532Z,89.3
2017-08-22T21:31:20.175Z,89.2
2017-08-22T21:31:40.846Z,89.5
2017-08-22T21:32:01.737Z,88.8
2017-08-22T21:32:22.522Z,89.3
2017-08-22T21:32:43.224Z,89.6
2017-08-22T21:33:04.052Z,89.7
2017-08-22T21:33:24.752Z,89.3
2017-08-22T21:33:45.452Z,89.4
2017-08-22T21:34:06.262Z,89
2017-08-22T21:34:26.952Z,89.3
2017-08-22T21:34:47.589Z,89.5
2017-08-22T21:35:08.267Z,89.9
2017-08-22T21:35:29.022Z,89.9
2017-08-22T21:35:49.685Z,89.7
2017-08-22T21:36:10.432Z,89.4
2017-08-22T21:36:31.131Z,89.3
2017-08-22T21:36:51.831Z,89
2017-08-22T21:37:12.511Z,89.5
2017-08-22T21:37:33.490Z,89.5
2017-08-22T21:37:54.679Z,89
2017-08-22T21:38:15.447Z,89.1
2017-08-22T21:38:36.200Z,88.8
2017-08-22T21:38:56.841Z,89.3
2017-08-22T21:39:17.477Z,89.5
2017-08-22T21:39:38.159Z,89.4
2017-08-22T21:39:58.939Z,89.7
2017-08-22T21:40:19.615Z,89.7
2017-08-22T21:40:40.302Z,89.4
2017-08-22T21:41:00.974Z,89.8
2017-08-22T21:41:21.637Z,89.6
2017-08-22T21:41:42.315Z,89.5
2017-08-22T21:42:03.097Z,89.9
2017-08-22T21:42:23.831Z,89.8
2017-08-22T21:42:44.535Z,89.3
2017-08-22T21:43:05.200Z,89.7
2017-08-22T21:43:25.949Z,89.6
2017-08-22T21:43:46.660Z,89.5
2017-08-22T21:44:07.316Z,89.3
2017-08-22T21:44:28.010Z,89.5
2017-08-22T21:44:48.657Z,89.4
2017-08-22T21:45:09.347Z,89.9
2017-08-22T21:45:30.019Z,89
2017-08-22T21:45:50.732Z,89.7
2017-08-22T21:46:11.404Z,89.8
2017-08-22T21:46:32.090Z,89.8
2017-08-22T21:46:52.727Z,89.7
2017-08-22T21:47:13.382Z,89.7
2017-08-22T21:47:34.124Z,89.8
2017-08-22T21:47:54.754Z,89.4
2017-08-22T21:48:15.401Z,89.7
2017-08-22T21:48:36.039Z,89.8
2017-08-22T21:48:56.733Z,89.9
2017-08-22T21:49:17.423Z,89.9
2017-08-22T21:49:38.157Z,90.2
2017-08-22T21:49:58.835Z,89.8
2017-08-22T21:50:19.502Z,89.4
2017-08-22T21:50:40.193Z,89.9
2017-08-22T21:51:00.905Z,89.7
2017-08-22T21:51:22.295Z,89.6
2017-08-22T21:51:42.918Z,90.1
2017-08-22T21:52:03.622Z,90.2
2017-08-22T21:52:24.329Z,90.3
2017-08-22T21:52:44.993Z,89.6
2017-08-22T21:53:05.653Z,89.6
2017-08-22T21:53:27.226Z,89.8
2017-08-22T21:53:47.894Z,89.5
2017-08-22T21:54:08.587Z,90.3
2017-08-22T21:54:29.247Z,89.9
2017-08-22T21:54:49.918Z,90.3
2017-08-22T21:55:10.557Z,89.9
2017-08-22T21:55:31.238Z,90.3
2017-08-22T21:55:51.900Z,90.1
2017-08-22T21:56:12.617Z,90.1
2017-08-22T21:56:33.294Z,90.2
2017-08-22T21:56:53.998Z,89.9
2017-08-22T21:57:14.682Z,90.2
2017-08-22T21:57:35.369Z,90.6
2017-08-22T21:57:56.106Z,90.9
2017-08-22T21:58:16.794Z,91.4
2017-08-22T21:58:37.558Z,91.4
2017-08-22T21:58:58.794Z,90.7
2017-08-22T21:59:19.525Z,90.4
2017-08-22T21:59:40.264Z,90.9
2017-08-22T22:00:00.923Z,91.2
2017-08-22T22:00:21.615Z,90.6
2017-08-22T22:00:42.308Z,90.8
2017-08-22T22:01:03.066Z,90.4
2017-08-22T22:01:23.807Z,90.6
2017-08-22T22:01:44.469Z,90.2
2017-08-22T22:02:05.102Z,89.8
2017-08-22T22:02:25.796Z,90.5
2017-08-22T22:02:46.447Z,90.3
2017-08-22T22:03:07.090Z,90.2
2017-08-22T22:03:27.756Z,90.2
2017-08-22T22:03:48.416Z,91
2017-08-22T22:04:09.119Z,90.6
2017-08-22T22:04:29.811Z,90.3
2017-08-22T22:04:50.452Z,90.4
2017-08-22T22:05:11.093Z,89.9
2017-08-22T22:05:31.717Z,89.8
2017-08-22T22:05:52.393Z,90.1
2017-08-22T22:06:13.064Z,90
2017-08-22T22:06:33.762Z,90.3
2017-08-22T22:06:54.426Z,90.6
2017-08-22T22:07:15.061Z,90.7
2017-08-22T22:07:35.853Z,90.2
2017-08-22T22:07:56.626Z,90.4
2017-08-22T22:08:17.314Z,90.6
2017-08-22T22:08:37.993Z,90.5
2017-08-22T22:08:58.653Z,90.4
2017-08-22T22:09:19.341Z,90.2
2017-08-22T22:09:39.983Z,90.3
2017-08-22T22:10:00.669Z,90.9
2017-08-22T22:10:21.308Z,91.4
2017-08-22T22:10:42.100Z,91.3
2017-08-22T22:11:03.493Z,91.8
2017-08-22T22:11:24.333Z,91.9
2017-08-22T22:11:45.220Z,91.6
2017-08-22T22:12:06.344Z,92.2
2017-08-22T22:12:26.965Z,91.5
2017-08-22T22:12:47.673Z,92.1
2017-08-22T22:13:08.344Z,92.1
2017-08-22T22:13:29.078Z,91.8
2017-08-22T22:13:49.730Z,91.4
2017-08-22T22:14:10.391Z,91.1
2017-08-22T22:14:31.066Z,92.3
2017-08-22T22:14:51.914Z,91.6
2017-08-22T22:15:12.670Z,92.1
2017-08-22T22:15:33.379Z,91.8
2017-08-22T22:15:54.051Z,91.1
2017-08-22T22:16:14.749Z,91.3
2017-08-22T22:16:35.515Z,91.3
2017-08-22T22:16:56.311Z,91.4
2017-08-22T22:17:17.179Z,91.7
2017-08-22T22:17:37.938Z,91.4
2017-08-22T22:17:58.588Z,91
2017-08-22T22:18:19.355Z,91.4
2017-08-22T22:18:40.076Z,91.7
2017-08-22T22:19:00.771Z,91.9
2017-08-22T22:19:21.447Z,91.8
2017-08-22T22:19:42.122Z,92.5
2017-08-22T22:20:02.828Z,92.4
2017-08-22T22:20:23.477Z,92
2017-08-22T22:20:44.209Z,91.5
2017-08-22T22:21:04.927Z,91.9
2017-08-22T22:21:25.752Z,92.1
2017-08-22T22:21:46.423Z,92.5
2017-08-22T22:22:07.094Z,92
2017-08-22T22:22:27.785Z,91.7
2017-08-22T22:22:48.435Z,91.1
2017-08-22T22:23:09.144Z,91.2
2017-08-22T22:23:29.903Z,91.2
2017-08-22T22:23:50.681Z,91.3
2017-08-22T22:24:11.363Z,91.1
2017-08-22T22:24:32.087Z,91.1
2017-08-22T22:24:52.901Z,91.3
2017-08-22T22:25:13.588Z,91.3
2017-08-22T22:25:34.247Z,91.4
2017-08-22T22:25:54.919Z,91.3
2017-08-22T22:26:15.588Z,91.1
2017-08-22T22:26:36.297Z,91.2
2017-08-22T22:26:56.968Z,91.5
2017-08-22T22:27:17.718Z,91.4
2017-08-22T22:27:38.371Z,91.1
2017-08-22T22:27:59.107Z,91.3
2017-08-22T22:28:19.754Z,91.4
2017-08-22T22:28:40.458Z,91.4
2017-08-22T22:29:01.127Z,91.1
2017-08-22T22:29:21.747Z,91.3
2017-08-22T22:29:42.580Z,91.2
2017-08-22T22:30:03.400Z,91.3
2017-08-22T22:30:24.148Z,91.2
2017-08-22T22:30:44.883Z,91.9
2017-08-22T22:31:05.535Z,91.8
2017-08-22T22:31:26.241Z,91.6
2017-08-22T22:31:46.945Z,91.7
2017-08-22T22:32:07.648Z,91.9
2017-08-22T22:32:28.339Z,92.5
2017-08-22T22:32:48.972Z,92.4
2017-08-22T22:33:09.639Z,92.5
2017-08-22T22:33:30.308Z,92.1
2017-08-22T22:33:50.962Z,92
2017-08-22T22:34:11.651Z,92.5
2017-08-22T22:34:32.296Z,92
2017-08-22T22:34:53.009Z,92.1
2017-08-22T22:35:13.701Z,92.7
2017-08-22T22:35:34.357Z,92.4
2017-08-22T22:35:55.032Z,92.2
2017-08-22T22:36:15.664Z,92.2
2017-08-22T22:36:36.338Z,92.5
2017-08-22T22:36:57.016Z,92.5
2017-08-22T22:37:17.711Z,92.2
2017-08-22T22:37:38.354Z,92.8
2017-08-22T22:37:59.039Z,92.9
2017-08-22T22:38:19.695Z,92.7
2017-08-22T22:38:40.391Z,92.9
2017-08-22T22:39:01.072Z,92.2
2017-08-22T22:39:21.795Z,92
2017-08-22T22:39:42.588Z,92.3
2017-08-22T22:40:03.259Z,92.9
2017-08-22T22:40:23.909Z,92.6
2017-08-22T22:40:44.585Z,92.8
2017-08-22T22:41:05.316Z,91.9
2017-08-22T22:41:25.991Z,92.3
2017-08-22T22:41:46.768Z,92.3
2017-08-22T22:42:07.450Z,92.4
2017-08-22T22:42:28.168Z,92.2
2017-08-22T22:42:48.857Z,91.9
2017-08-22T22:43:09.541Z,92.6
2017-08-22T22:43:30.280Z,92.3
2017-08-22T22:43:50.938Z,92.4
2017-08-22T22:44:11.611Z,92.9
2017-08-22T22:44:32.286Z,92.5
2017-08-22T22:44:53.035Z,92.8
2017-08-22T22:45:13.740Z,92.9
2017-08-22T22:45:34.501Z,92.2
2017-08-22T22:45:55.260Z,92.3
2017-08-22T22:46:15.925Z,93
2017-08-22T22:46:36.617Z,92.8
2017-08-22T22:46:57.321Z,93.1
2017-08-22T22:47:18.018Z,92.6
2017-08-22T22:47:38.784Z,92.8
2017-08-22T22:47:59.533Z,92.7
2017-08-22T22:48:20.240Z,93.1
2017-08-22T22:48:40.923Z,92.9
2017-08-22T22:49:01.568Z,93.2
2017-08-22T22:49:22.291Z,93
2017-08-22T22:49:43.022Z,93.3
2017-08-22T22:50:03.706Z,93.1
2017-08-22T22:50:25.207Z,93.7
2017-08-22T22:50:45.912Z,93.6
2017-08-22T22:51:06.576Z,93.7
2017-08-22T22:51:27.229Z,93.5
2017-08-22T22:51:47.918Z,93.1
2017-08-22T22:52:08.592Z,93.3
2017-08-22T22:52:29.262Z,93.5
2017-08-22T22:52:49.931Z,93.6
2017-08-22T22:53:10.658Z,93.4
2017-08-22T22:53:31.368Z,94
2017-08-22T22:53:52.025Z,93.8
2017-08-22T22:54:12.700Z,94.1
2017-08-22T22:54:33.402Z,94.2
2017-08-22T22:54:54.107Z,94.4
2017-08-22T22:55:14.752Z,94.1
2017-08-22T22:55:35.465Z,94
2017-08-22T22:55:56.154Z,94.1
2017-08-22T22:56:16.807Z,94.4
2017-08-22T22:56:37.483Z,93.7
2017-08-22T22:56:58.165Z,94.3
2017-08-22T22:57:18.803Z,95
2017-08-22T22:57:39.437Z,94.2
2017-08-22T22:58:00.137Z,94.3
2017-08-22T22:58:20.797Z,94.1
2017-08-22T22:58:41.474Z,94.5
2017-08-22T22:59:02.152Z,94.4
2017-08-22T22:59:22.849Z,94.9
2017-08-22T22:59:43.528Z,94.3
2017-08-22T23:00:04.183Z,94.3
2017-08-22T23:00:24.882Z,94.1
2017-08-22T23:00:45.518Z,94.1
2017-08-22T23:01:06.166Z,94
2017-08-22T23:01:26.838Z,93.8
2017-08-22T23:01:47.525Z,94.1
2017-08-22T23:02:08.202Z,94.1
2017-08-22T23:02:28.862Z,94.3
2017-08-22T23:02:49.498Z,93.8
2017-08-22T23:03:10.191Z,94.2
2017-08-22T23:03:30.842Z,94.7
2017-08-22T23:03:51.476Z,94.8
2017-08-22T23:04:12.119Z,94.8
2017-08-22T23:04:32.828Z,95.2
2017-08-22T23:04:53.530Z,94.6
2017-08-22T23:05:14.187Z,95.3
2017-08-22T23:05:34.889Z,95.3
2017-08-22T23:05:55.587Z,95.1
2017-08-22T23:06:16.305Z,95.3
2017-08-22T23:06:37.015Z,95
2017-08-22T23:06:57.673Z,95.5
2017-08-22T23:07:18.333Z,95.1
2017-08-22T23:07:39.057Z,94.9
2017-08-22T23:07:59.729Z,95
2017-08-22T23:08:20.372Z,94.5
2017-08-22T23:08:41.087Z,94.8
2017-08-22T23:09:01.769Z,94.8
2017-08-22T23:09:22.468Z,94.6
2017-08-22T23:09:43.227Z,94.7
2017-08-22T23:10:03.922Z,94.6
2017-08-22T23:10:24.626Z,94.6
2017-08-22T23:10:45.291Z,94.8
2017-08-22T23:11:05.982Z,94.6
2017-08-22T23:11:26.646Z,94.7
2017-08-22T23:11:47.314Z,94.9
2017-08-22T23:12:07.984Z,94.6
2017-08-22T23:12:28.682Z,95
2017-08-22T23:12:49.366Z,95.2
2017-08-22T23:13:10.045Z,95.2
2017-08-22T23:13:30.735Z,95
2017-08-22T23:13:51.491Z,94.8
2017-08-22T23:14:12.159Z,94.9
2017-08-22T23:14:32.844Z,94.6
2017-08-22T23:14:53.499Z,95
2017-08-22T23:15:14.146Z,95.1
2017-08-22T23:15:34.859Z,95.1
2017-08-22T23:15:55.501Z,95.4
2017-08-22T23:16:16.168Z,95.4
2017-08-22T23:16:36.840Z,95.2
2017-08-22T23:16:57.541Z,95.3
2017-08-22T23:17:18.199Z,95.3
2017-08-22T23:17:38.850Z,95.2
2017-08-22T23:17:59.506Z,95.2
2017-08-22T23:18:20.202Z,95
2017-08-22T23:18:40.835Z,95
2017-08-22T23:19:01.477Z,95.1
2017-08-22T23:19:22.196Z,95.1
2017-08-22T23:19:42.850Z,94.9
2017-08-22T23:20:03.489Z,95.3
2017-08-22T23:20:24.135Z,94.9
2017-08-22T23:20:44.876Z,95.6
2017-08-22T23:21:05.567Z,94.8
2017-08-22T23:21:26.231Z,95.4
2017-08-22T23:21:46.897Z,95.1
2017-08-22T23:22:07.545Z,94.7
2017-08-22T23:22:28.190Z,95.1
2017-08-22T23:22:48.850Z,94.8
2017-08-22T23:23:09.546Z,94.7
2017-08-22T23:23:30.180Z,94.6
2017-08-22T23:23:50.897Z,95
2017-08-22T23:24:11.527Z,95.3
2017-08-22T23:24:32.201Z,95
2017-08-22T23:24:52.843Z,94.9
2017-08-22T23:25:13.506Z,94.9
2017-08-22T23:25:34.191Z,95.1
2017-08-22T23:25:54.831Z,95.1
2017-08-22T23:26:15.468Z,95.3